sensor_id;sensor_type;location;lat;lon;timestamp;P1;durP1;ratioP1;P2;durP2;ratioP2
11267;SDS011;72685;47.474;9.416;2024-03-06T00:00:25;2.87;;;2.73;;
11267;SDS011;72685;47.474;9.416;2024-03-06T00:02:51;3.43;;;3.17;;
11267;SDS011;72685;47.474;9.416;2024-03-06T00:05:16;3.43;;;2.90;;
11267;SDS011;72685;47.474;9.416;2024-03-06T00:07:41;2.93;;;2.73;;
11267;SDS011;72685;47.474;9.416;2024-03-06T00:10:07;2.87;;;2.73;;
11267;SDS011;72685;47.474;9.416;2024-03-06T00:12:33;3.43;;;3.17;;
11267;SDS011;72685;47.474;9.416;2024-03-06T00:14:59;3.20;;;3.00;;
11267;SDS011;72685;47.474;9.416;2024-03-06T00:17:25;3.43;;;3.23;;
11267;SDS011;72685;47.474;9.416;2024-03-06T00:19:50;3.50;;;3.20;;
11267;SDS011;72685;47.474;9.416;2024-03-06T00:22:16;3.67;;;3.27;;
11267;SDS011;72685;47.474;9.416;2024-03-06T00:24:42;3.43;;;3.13;;
11267;SDS011;72685;47.474;9.416;2024-03-06T00:27:07;3.60;;;3.30;;
11267;SDS011;72685;47.474;9.416;2024-03-06T00:29:33;3.27;;;3.07;;
11267;SDS011;72685;47.474;9.416;2024-03-06T00:31:58;3.57;;;3.27;;
11267;SDS011;72685;47.474;9.416;2024-03-06T00:34:23;3.83;;;3.50;;
11267;SDS011;72685;47.474;9.416;2024-03-06T00:36:49;4.00;;;3.60;;
11267;SDS011;72685;47.474;9.416;2024-03-06T00:39:15;4.07;;;3.67;;
11267;SDS011;72685;47.474;9.416;2024-03-06T00:41:40;3.23;;;3.03;;
11267;SDS011;72685;47.474;9.416;2024-03-06T00:44:06;3.70;;;3.40;;
11267;SDS011;72685;47.474;9.416;2024-03-06T00:46:32;3.93;;;3.63;;
11267;SDS011;72685;47.474;9.416;2024-03-06T00:48:57;3.80;;;3.27;;
11267;SDS011;72685;47.474;9.416;2024-03-06T00:51:23;3.70;;;3.40;;
11267;SDS011;72685;47.474;9.416;2024-03-06T00:53:48;3.73;;;3.43;;
11267;SDS011;72685;47.474;9.416;2024-03-06T00:56:14;3.87;;;3.47;;
11267;SDS011;72685;47.474;9.416;2024-03-06T00:58:39;4.20;;;3.77;;
11267;SDS011;72685;47.474;9.416;2024-03-06T01:01:04;4.97;;;3.70;;
11267;SDS011;72685;47.474;9.416;2024-03-06T01:03:30;4.10;;;3.60;;
11267;SDS011;72685;47.474;9.416;2024-03-06T01:05:55;3.77;;;3.47;;
11267;SDS011;72685;47.474;9.416;2024-03-06T01:08:21;3.60;;;3.30;;
11267;SDS011;72685;47.474;9.416;2024-03-06T01:10:49;3.63;;;3.33;;
11267;SDS011;72685;47.474;9.416;2024-03-06T01:13:15;3.90;;;3.37;;
11267;SDS011;72685;47.474;9.416;2024-03-06T01:15:41;5.33;;;3.83;;
11267;SDS011;72685;47.474;9.416;2024-03-06T01:18:06;4.10;;;3.70;;
11267;SDS011;72685;47.474;9.416;2024-03-06T01:20:31;4.10;;;3.50;;
11267;SDS011;72685;47.474;9.416;2024-03-06T01:22:57;5.57;;;3.80;;
11267;SDS011;72685;47.474;9.416;2024-03-06T01:25:23;4.23;;;3.80;;
11267;SDS011;72685;47.474;9.416;2024-03-06T01:27:49;3.90;;;3.60;;
11267;SDS011;72685;47.474;9.416;2024-03-06T01:30:14;4.20;;;3.80;;
11267;SDS011;72685;47.474;9.416;2024-03-06T01:32:40;4.93;;;4.30;;
11267;SDS011;72685;47.474;9.416;2024-03-06T01:35:06;5.00;;;4.23;;
11267;SDS011;72685;47.474;9.416;2024-03-06T01:37:31;4.80;;;4.10;;
11267;SDS011;72685;47.474;9.416;2024-03-06T01:39:57;3.97;;;3.63;;
11267;SDS011;72685;47.474;9.416;2024-03-06T01:42:22;3.73;;;3.43;;
11267;SDS011;72685;47.474;9.416;2024-03-06T01:44:48;3.77;;;3.47;;
11267;SDS011;72685;47.474;9.416;2024-03-06T01:47:13;3.97;;;3.57;;
11267;SDS011;72685;47.474;9.416;2024-03-06T01:49:39;4.40;;;3.73;;
11267;SDS011;72685;47.474;9.416;2024-03-06T01:52:04;4.00;;;3.70;;
11267;SDS011;72685;47.474;9.416;2024-03-06T01:54:31;3.90;;;3.60;;
11267;SDS011;72685;47.474;9.416;2024-03-06T01:56:57;4.47;;;4.00;;
11267;SDS011;72685;47.474;9.416;2024-03-06T01:59:25;3.87;;;3.57;;
11267;SDS011;72685;47.474;9.416;2024-03-06T02:01:54;4.40;;;3.90;;
11267;SDS011;72685;47.474;9.416;2024-03-06T02:04:19;4.83;;;4.13;;
11267;SDS011;72685;47.474;9.416;2024-03-06T02:06:45;4.17;;;3.77;;
11267;SDS011;72685;47.474;9.416;2024-03-06T02:09:11;4.73;;;3.93;;
11267;SDS011;72685;47.474;9.416;2024-03-06T02:11:38;4.00;;;3.70;;
11267;SDS011;72685;47.474;9.416;2024-03-06T02:14:04;4.33;;;3.93;;
11267;SDS011;72685;47.474;9.416;2024-03-06T02:16:31;4.53;;;4.13;;
11267;SDS011;72685;47.474;9.416;2024-03-06T02:18:57;4.13;;;3.73;;
11267;SDS011;72685;47.474;9.416;2024-03-06T02:21:23;4.13;;;3.73;;
11267;SDS011;72685;47.474;9.416;2024-03-06T02:23:50;4.43;;;4.03;;
11267;SDS011;72685;47.474;9.416;2024-03-06T02:26:19;4.20;;;3.80;;
11267;SDS011;72685;47.474;9.416;2024-03-06T02:28:51;3.37;;;3.17;;
11267;SDS011;72685;47.474;9.416;2024-03-06T02:31:18;3.80;;;3.50;;
11267;SDS011;72685;47.474;9.416;2024-03-06T02:33:45;3.80;;;3.50;;
11267;SDS011;72685;47.474;9.416;2024-03-06T02:36:15;4.30;;;3.90;;
11267;SDS011;72685;47.474;9.416;2024-03-06T02:38:41;4.23;;;3.83;;
11267;SDS011;72685;47.474;9.416;2024-03-06T02:41:07;5.90;;;4.93;;
11267;SDS011;72685;47.474;9.416;2024-03-06T02:43:33;5.47;;;4.47;;
11267;SDS011;72685;47.474;9.416;2024-03-06T02:45:59;4.93;;;3.97;;
11267;SDS011;72685;47.474;9.416;2024-03-06T02:48:24;4.00;;;3.60;;
11267;SDS011;72685;47.474;9.416;2024-03-06T02:50:50;4.73;;;4.27;;
11267;SDS011;72685;47.474;9.416;2024-03-06T02:53:15;3.97;;;3.57;;
11267;SDS011;72685;47.474;9.416;2024-03-06T02:55:41;3.90;;;3.53;;
11267;SDS011;72685;47.474;9.416;2024-03-06T02:58:06;5.43;;;3.90;;
11267;SDS011;72685;47.474;9.416;2024-03-06T03:00:31;4.37;;;3.63;;
11267;SDS011;72685;47.474;9.416;2024-03-06T03:02:57;3.73;;;3.40;;
11267;SDS011;72685;47.474;9.416;2024-03-06T03:05:23;4.37;;;3.70;;
11267;SDS011;72685;47.474;9.416;2024-03-06T03:07:48;3.67;;;3.37;;
11267;SDS011;72685;47.474;9.416;2024-03-06T03:10:14;4.00;;;3.60;;
11267;SDS011;72685;47.474;9.416;2024-03-06T03:12:40;3.97;;;3.40;;
11267;SDS011;72685;47.474;9.416;2024-03-06T03:15:05;5.07;;;3.50;;
11267;SDS011;72685;47.474;9.416;2024-03-06T03:17:31;3.60;;;3.30;;
11267;SDS011;72685;47.474;9.416;2024-03-06T03:19:57;3.50;;;3.20;;
11267;SDS011;72685;47.474;9.416;2024-03-06T03:22:23;3.90;;;3.50;;
11267;SDS011;72685;47.474;9.416;2024-03-06T03:24:48;3.67;;;3.37;;
11267;SDS011;72685;47.474;9.416;2024-03-06T03:27:14;3.43;;;3.13;;
11267;SDS011;72685;47.474;9.416;2024-03-06T03:29:39;4.37;;;3.97;;
11267;SDS011;72685;47.474;9.416;2024-03-06T03:32:05;4.03;;;3.73;;
11267;SDS011;72685;47.474;9.416;2024-03-06T03:34:30;4.47;;;3.50;;
11267;SDS011;72685;47.474;9.416;2024-03-06T03:36:56;4.03;;;3.63;;
11267;SDS011;72685;47.474;9.416;2024-03-06T03:39:21;3.73;;;3.33;;
11267;SDS011;72685;47.474;9.416;2024-03-06T03:41:49;3.23;;;2.97;;
11267;SDS011;72685;47.474;9.416;2024-03-06T03:44:15;3.47;;;3.17;;
11267;SDS011;72685;47.474;9.416;2024-03-06T03:46:42;2.60;;;2.40;;
11267;SDS011;72685;47.474;9.416;2024-03-06T03:49:08;3.63;;;3.33;;
11267;SDS011;72685;47.474;9.416;2024-03-06T03:51:37;3.57;;;3.27;;
11267;SDS011;72685;47.474;9.416;2024-03-06T03:54:04;3.60;;;3.27;;
11267;SDS011;72685;47.474;9.416;2024-03-06T03:56:29;5.10;;;3.60;;
11267;SDS011;72685;47.474;9.416;2024-03-06T03:58:56;3.00;;;2.80;;
11267;SDS011;72685;47.474;9.416;2024-03-06T04:01:22;2.97;;;2.73;;
11267;SDS011;72685;47.474;9.416;2024-03-06T04:03:48;3.40;;;3.10;;
11267;SDS011;72685;47.474;9.416;2024-03-06T04:06:13;3.23;;;2.93;;
11267;SDS011;72685;47.474;9.416;2024-03-06T04:08:39;4.03;;;3.57;;
11267;SDS011;72685;47.474;9.416;2024-03-06T04:11:04;3.63;;;3.07;;
11267;SDS011;72685;47.474;9.416;2024-03-06T04:13:29;3.27;;;3.00;;
11267;SDS011;72685;47.474;9.416;2024-03-06T04:15:55;3.10;;;2.80;;
11267;SDS011;72685;47.474;9.416;2024-03-06T04:18:20;3.40;;;3.17;;
11267;SDS011;72685;47.474;9.416;2024-03-06T04:20:46;3.03;;;2.83;;
11267;SDS011;72685;47.474;9.416;2024-03-06T04:23:11;3.67;;;3.37;;
11267;SDS011;72685;47.474;9.416;2024-03-06T04:25:37;2.40;;;2.20;;
11267;SDS011;72685;47.474;9.416;2024-03-06T04:28:04;3.30;;;3.00;;
11267;SDS011;72685;47.474;9.416;2024-03-06T04:30:32;2.90;;;2.70;;
11267;SDS011;72685;47.474;9.416;2024-03-06T04:32:58;2.87;;;2.67;;
11267;SDS011;72685;47.474;9.416;2024-03-06T04:35:24;2.97;;;2.77;;
11267;SDS011;72685;47.474;9.416;2024-03-06T04:37:49;2.90;;;2.70;;
11267;SDS011;72685;47.474;9.416;2024-03-06T04:40:15;3.07;;;2.83;;
11267;SDS011;72685;47.474;9.416;2024-03-06T04:42:45;3.07;;;2.70;;
11267;SDS011;72685;47.474;9.416;2024-03-06T04:45:14;2.80;;;2.60;;
11267;SDS011;72685;47.474;9.416;2024-03-06T04:47:41;3.20;;;2.90;;
11267;SDS011;72685;47.474;9.416;2024-03-06T04:50:09;3.57;;;3.27;;
11267;SDS011;72685;47.474;9.416;2024-03-06T04:52:36;3.57;;;3.27;;
11267;SDS011;72685;47.474;9.416;2024-03-06T04:55:02;3.57;;;3.27;;
11267;SDS011;72685;47.474;9.416;2024-03-06T04:57:28;3.57;;;3.27;;
11267;SDS011;72685;47.474;9.416;2024-03-06T04:59:53;3.17;;;2.97;;
11267;SDS011;72685;47.474;9.416;2024-03-06T05:02:19;3.13;;;2.83;;
11267;SDS011;72685;47.474;9.416;2024-03-06T05:04:45;3.33;;;3.07;;
11267;SDS011;72685;47.474;9.416;2024-03-06T05:07:12;6.07;;;3.53;;
11267;SDS011;72685;47.474;9.416;2024-03-06T05:09:38;3.37;;;2.90;;
11267;SDS011;72685;47.474;9.416;2024-03-06T05:12:04;3.30;;;3.10;;
11267;SDS011;72685;47.474;9.416;2024-03-06T05:14:30;3.20;;;2.90;;
11267;SDS011;72685;47.474;9.416;2024-03-06T05:16:55;2.87;;;2.67;;
11267;SDS011;72685;47.474;9.416;2024-03-06T05:19:21;2.93;;;2.73;;
11267;SDS011;72685;47.474;9.416;2024-03-06T05:21:46;3.30;;;3.00;;
11267;SDS011;72685;47.474;9.416;2024-03-06T05:24:11;3.63;;;3.30;;
11267;SDS011;72685;47.474;9.416;2024-03-06T05:26:37;4.00;;;3.60;;
11267;SDS011;72685;47.474;9.416;2024-03-06T05:29:02;2.90;;;2.70;;
11267;SDS011;72685;47.474;9.416;2024-03-06T05:31:28;4.13;;;2.97;;
11267;SDS011;72685;47.474;9.416;2024-03-06T05:33:53;3.03;;;2.83;;
11267;SDS011;72685;47.474;9.416;2024-03-06T05:36:19;4.03;;;3.47;;
11267;SDS011;72685;47.474;9.416;2024-03-06T05:38:44;5.00;;;3.43;;
11267;SDS011;72685;47.474;9.416;2024-03-06T05:41:10;8.27;;;3.50;;
11267;SDS011;72685;47.474;9.416;2024-03-06T05:43:36;4.10;;;3.70;;
11267;SDS011;72685;47.474;9.416;2024-03-06T05:46:01;3.90;;;3.50;;
11267;SDS011;72685;47.474;9.416;2024-03-06T05:48:26;2.97;;;2.77;;
11267;SDS011;72685;47.474;9.416;2024-03-06T05:50:52;3.57;;;3.27;;
11267;SDS011;72685;47.474;9.416;2024-03-06T05:53:18;3.30;;;3.00;;
11267;SDS011;72685;47.474;9.416;2024-03-06T05:55:43;3.97;;;3.50;;
11267;SDS011;72685;47.474;9.416;2024-03-06T05:58:09;3.37;;;3.07;;
11267;SDS011;72685;47.474;9.416;2024-03-06T06:00:34;3.07;;;2.87;;
11267;SDS011;72685;47.474;9.416;2024-03-06T06:03:00;3.30;;;2.93;;
11267;SDS011;72685;47.474;9.416;2024-03-06T06:05:25;3.13;;;2.73;;
11267;SDS011;72685;47.474;9.416;2024-03-06T06:07:51;3.43;;;3.13;;
11267;SDS011;72685;47.474;9.416;2024-03-06T06:10:16;3.80;;;3.50;;
11267;SDS011;72685;47.474;9.416;2024-03-06T06:12:42;3.67;;;3.07;;
11267;SDS011;72685;47.474;9.416;2024-03-06T06:15:08;4.57;;;3.00;;
11267;SDS011;72685;47.474;9.416;2024-03-06T06:17:33;3.33;;;3.03;;
11267;SDS011;72685;47.474;9.416;2024-03-06T06:19:59;4.73;;;3.50;;
11267;SDS011;72685;47.474;9.416;2024-03-06T06:22:28;3.73;;;3.37;;
11267;SDS011;72685;47.474;9.416;2024-03-06T06:24:54;3.83;;;3.30;;
11267;SDS011;72685;47.474;9.416;2024-03-06T06:27:20;3.90;;;3.60;;
11267;SDS011;72685;47.474;9.416;2024-03-06T06:29:46;3.70;;;3.40;;
11267;SDS011;72685;47.474;9.416;2024-03-06T06:32:11;3.73;;;3.13;;
11267;SDS011;72685;47.474;9.416;2024-03-06T06:34:37;3.90;;;3.60;;
11267;SDS011;72685;47.474;9.416;2024-03-06T06:37:02;3.07;;;2.87;;
11267;SDS011;72685;47.474;9.416;2024-03-06T06:39:27;3.20;;;2.97;;
11267;SDS011;72685;47.474;9.416;2024-03-06T06:41:53;6.07;;;3.47;;
11267;SDS011;72685;47.474;9.416;2024-03-06T06:44:18;3.40;;;3.20;;
11267;SDS011;72685;47.474;9.416;2024-03-06T06:46:43;2.67;;;2.47;;
11267;SDS011;72685;47.474;9.416;2024-03-06T06:49:09;3.37;;;2.83;;
11267;SDS011;72685;47.474;9.416;2024-03-06T06:51:34;3.63;;;2.57;;
11267;SDS011;72685;47.474;9.416;2024-03-06T06:54:00;3.40;;;3.10;;
11267;SDS011;72685;47.474;9.416;2024-03-06T06:56:26;3.17;;;2.87;;
11267;SDS011;72685;47.474;9.416;2024-03-06T06:58:52;4.33;;;3.43;;
11267;SDS011;72685;47.474;9.416;2024-03-06T07:01:18;4.00;;;3.07;;
11267;SDS011;72685;47.474;9.416;2024-03-06T07:03:43;3.90;;;3.07;;
11267;SDS011;72685;47.474;9.416;2024-03-06T07:06:09;3.50;;;3.20;;
11267;SDS011;72685;47.474;9.416;2024-03-06T07:08:36;3.57;;;3.27;;
11267;SDS011;72685;47.474;9.416;2024-03-06T07:11:02;4.70;;;3.20;;
11267;SDS011;72685;47.474;9.416;2024-03-06T07:13:28;3.90;;;3.50;;
11267;SDS011;72685;47.474;9.416;2024-03-06T07:15:53;4.37;;;3.97;;
11267;SDS011;72685;47.474;9.416;2024-03-06T07:18:18;3.17;;;2.97;;
11267;SDS011;72685;47.474;9.416;2024-03-06T07:20:44;4.63;;;3.60;;
11267;SDS011;72685;47.474;9.416;2024-03-06T07:23:09;4.97;;;3.57;;
11267;SDS011;72685;47.474;9.416;2024-03-06T07:25:34;4.20;;;3.80;;
11267;SDS011;72685;47.474;9.416;2024-03-06T07:28:00;3.53;;;3.23;;
11267;SDS011;72685;47.474;9.416;2024-03-06T07:30:25;3.13;;;2.83;;
11267;SDS011;72685;47.474;9.416;2024-03-06T07:32:50;4.10;;;3.70;;
11267;SDS011;72685;47.474;9.416;2024-03-06T07:35:16;3.60;;;3.30;;
11267;SDS011;72685;47.474;9.416;2024-03-06T07:37:42;3.33;;;3.03;;
11267;SDS011;72685;47.474;9.416;2024-03-06T07:40:09;3.47;;;3.17;;
11267;SDS011;72685;47.474;9.416;2024-03-06T07:42:35;3.67;;;3.37;;
11267;SDS011;72685;47.474;9.416;2024-03-06T07:45:00;3.00;;;2.80;;
11267;SDS011;72685;47.474;9.416;2024-03-06T07:47:26;4.00;;;3.10;;
11267;SDS011;72685;47.474;9.416;2024-03-06T07:49:52;3.03;;;2.73;;
11267;SDS011;72685;47.474;9.416;2024-03-06T07:52:17;3.57;;;3.10;;
11267;SDS011;72685;47.474;9.416;2024-03-06T07:54:42;2.57;;;2.37;;
11267;SDS011;72685;47.474;9.416;2024-03-06T07:57:08;3.10;;;2.80;;
11267;SDS011;72685;47.474;9.416;2024-03-06T07:59:34;4.57;;;2.90;;
11267;SDS011;72685;47.474;9.416;2024-03-06T08:02:00;3.10;;;2.80;;
11267;SDS011;72685;47.474;9.416;2024-03-06T08:04:26;3.33;;;3.03;;
11267;SDS011;72685;47.474;9.416;2024-03-06T08:06:52;2.97;;;2.73;;
11267;SDS011;72685;47.474;9.416;2024-03-06T08:09:17;2.87;;;2.67;;
11267;SDS011;72685;47.474;9.416;2024-03-06T08:11:44;2.87;;;2.67;;
11267;SDS011;72685;47.474;9.416;2024-03-06T08:14:10;2.83;;;2.47;;
11267;SDS011;72685;47.474;9.416;2024-03-06T08:16:35;3.53;;;2.93;;
11267;SDS011;72685;47.474;9.416;2024-03-06T08:19:02;2.43;;;2.23;;
11267;SDS011;72685;47.474;9.416;2024-03-06T08:21:28;2.70;;;2.40;;
11267;SDS011;72685;47.474;9.416;2024-03-06T08:23:53;2.90;;;2.70;;
11267;SDS011;72685;47.474;9.416;2024-03-06T08:26:19;2.57;;;2.37;;
11267;SDS011;72685;47.474;9.416;2024-03-06T08:28:44;2.80;;;2.60;;
11267;SDS011;72685;47.474;9.416;2024-03-06T08:31:10;2.90;;;2.70;;
11267;SDS011;72685;47.474;9.416;2024-03-06T08:33:35;2.37;;;2.17;;
11267;SDS011;72685;47.474;9.416;2024-03-06T08:36:00;2.80;;;2.50;;
11267;SDS011;72685;47.474;9.416;2024-03-06T08:38:26;3.27;;;2.97;;
11267;SDS011;72685;47.474;9.416;2024-03-06T08:40:51;2.80;;;2.60;;
11267;SDS011;72685;47.474;9.416;2024-03-06T08:43:17;4.50;;;3.47;;
11267;SDS011;72685;47.474;9.416;2024-03-06T08:45:44;2.50;;;2.27;;
11267;SDS011;72685;47.474;9.416;2024-03-06T08:48:09;2.80;;;2.60;;
11267;SDS011;72685;47.474;9.416;2024-03-06T08:50:35;3.40;;;3.10;;
11267;SDS011;72685;47.474;9.416;2024-03-06T08:53:00;3.17;;;2.67;;
11267;SDS011;72685;47.474;9.416;2024-03-06T08:55:27;2.73;;;2.50;;
11267;SDS011;72685;47.474;9.416;2024-03-06T08:57:53;2.90;;;2.73;;
11267;SDS011;72685;47.474;9.416;2024-03-06T09:00:19;2.47;;;2.30;;
11267;SDS011;72685;47.474;9.416;2024-03-06T09:02:44;2.90;;;2.53;;
11267;SDS011;72685;47.474;9.416;2024-03-06T09:05:10;2.90;;;2.53;;
11267;SDS011;72685;47.474;9.416;2024-03-06T09:07:37;3.93;;;2.87;;
11267;SDS011;72685;47.474;9.416;2024-03-06T09:10:09;2.30;;;2.20;;
11267;SDS011;72685;47.474;9.416;2024-03-06T09:12:38;2.43;;;2.23;;
11267;SDS011;72685;47.474;9.416;2024-03-06T09:15:03;2.63;;;2.53;;
11267;SDS011;72685;47.474;9.416;2024-03-06T09:17:29;2.53;;;2.40;;
11267;SDS011;72685;47.474;9.416;2024-03-06T09:19:55;2.47;;;2.30;;
11267;SDS011;72685;47.474;9.416;2024-03-06T09:22:21;3.27;;;2.73;;
11267;SDS011;72685;47.474;9.416;2024-03-06T09:24:46;2.70;;;2.50;;
11267;SDS011;72685;47.474;9.416;2024-03-06T09:27:13;3.83;;;3.40;;
11267;SDS011;72685;47.474;9.416;2024-03-06T09:29:39;2.60;;;2.40;;
11267;SDS011;72685;47.474;9.416;2024-03-06T09:32:05;2.93;;;2.53;;
11267;SDS011;72685;47.474;9.416;2024-03-06T09:34:30;2.50;;;2.30;;
11267;SDS011;72685;47.474;9.416;2024-03-06T09:36:55;2.70;;;2.50;;
11267;SDS011;72685;47.474;9.416;2024-03-06T09:39:21;3.33;;;2.53;;
11267;SDS011;72685;47.474;9.416;2024-03-06T09:41:48;3.07;;;2.53;;
11267;SDS011;72685;47.474;9.416;2024-03-06T09:44:15;5.47;;;2.33;;
11267;SDS011;72685;47.474;9.416;2024-03-06T09:46:45;2.10;;;2.00;;
11267;SDS011;72685;47.474;9.416;2024-03-06T09:49:12;2.40;;;2.20;;
11267;SDS011;72685;47.474;9.416;2024-03-06T09:51:42;4.90;;;2.40;;
11267;SDS011;72685;47.474;9.416;2024-03-06T09:54:10;2.60;;;2.40;;
11267;SDS011;72685;47.474;9.416;2024-03-06T09:56:38;2.03;;;1.93;;
11267;SDS011;72685;47.474;9.416;2024-03-06T09:59:04;2.57;;;2.37;;
11267;SDS011;72685;47.474;9.416;2024-03-06T10:01:29;2.33;;;2.13;;
11267;SDS011;72685;47.474;9.416;2024-03-06T10:03:56;2.50;;;2.30;;
11267;SDS011;72685;47.474;9.416;2024-03-06T10:06:22;2.10;;;2.00;;
11267;SDS011;72685;47.474;9.416;2024-03-06T10:08:47;2.10;;;2.00;;
11267;SDS011;72685;47.474;9.416;2024-03-06T10:11:14;2.03;;;1.93;;
11267;SDS011;72685;47.474;9.416;2024-03-06T10:13:42;2.03;;;1.93;;
11267;SDS011;72685;47.474;9.416;2024-03-06T10:16:07;2.23;;;1.70;;
11267;SDS011;72685;47.474;9.416;2024-03-06T10:18:35;1.90;;;1.80;;
11267;SDS011;72685;47.474;9.416;2024-03-06T10:21:01;1.77;;;1.77;;
11267;SDS011;72685;47.474;9.416;2024-03-06T10:23:27;1.67;;;1.67;;
11267;SDS011;72685;47.474;9.416;2024-03-06T10:25:55;2.00;;;1.90;;
11267;SDS011;72685;47.474;9.416;2024-03-06T10:28:21;2.00;;;1.90;;
11267;SDS011;72685;47.474;9.416;2024-03-06T10:30:48;1.83;;;1.73;;
11267;SDS011;72685;47.474;9.416;2024-03-06T10:33:15;2.00;;;1.90;;
11267;SDS011;72685;47.474;9.416;2024-03-06T10:35:46;2.30;;;2.20;;
11267;SDS011;72685;47.474;9.416;2024-03-06T10:38:13;2.13;;;1.93;;
11267;SDS011;72685;47.474;9.416;2024-03-06T10:40:42;2.10;;;2.00;;
11267;SDS011;72685;47.474;9.416;2024-03-06T10:43:09;2.23;;;2.13;;
11267;SDS011;72685;47.474;9.416;2024-03-06T10:45:48;2.20;;;2.10;;
11267;SDS011;72685;47.474;9.416;2024-03-06T10:48:15;2.03;;;1.93;;
11267;SDS011;72685;47.474;9.416;2024-03-06T10:50:45;1.80;;;1.70;;
11267;SDS011;72685;47.474;9.416;2024-03-06T10:53:12;1.90;;;1.83;;
11267;SDS011;72685;47.474;9.416;2024-03-06T10:55:43;1.83;;;1.73;;
11267;SDS011;72685;47.474;9.416;2024-03-06T10:58:12;2.30;;;2.20;;
11267;SDS011;72685;47.474;9.416;2024-03-06T11:00:38;2.00;;;1.90;;
11267;SDS011;72685;47.474;9.416;2024-03-06T11:03:06;2.20;;;2.10;;
11267;SDS011;72685;47.474;9.416;2024-03-06T11:05:40;2.00;;;1.80;;
11267;SDS011;72685;47.474;9.416;2024-03-06T11:08:07;1.90;;;1.80;;
11267;SDS011;72685;47.474;9.416;2024-03-06T11:10:33;3.03;;;2.20;;
11267;SDS011;72685;47.474;9.416;2024-03-06T11:13:00;1.70;;;1.60;;
11267;SDS011;72685;47.474;9.416;2024-03-06T11:15:26;1.87;;;1.70;;
11267;SDS011;72685;47.474;9.416;2024-03-06T11:17:52;1.93;;;1.80;;
11267;SDS011;72685;47.474;9.416;2024-03-06T11:20:19;2.00;;;1.90;;
11267;SDS011;72685;47.474;9.416;2024-03-06T11:28:34;1.83;;;1.83;;
11267;SDS011;72685;47.474;9.416;2024-03-06T11:31:01;1.77;;;1.67;;
11267;SDS011;72685;47.474;9.416;2024-03-06T11:41:15;2.97;;;1.70;;
11267;SDS011;72685;47.474;9.416;2024-03-06T11:43:43;1.63;;;1.53;;
11267;SDS011;72685;47.474;9.416;2024-03-06T11:46:09;2.03;;;1.93;;
11267;SDS011;72685;47.474;9.416;2024-03-06T11:48:36;2.50;;;2.30;;
11267;SDS011;72685;47.474;9.416;2024-03-06T11:51:02;2.13;;;2.03;;
11267;SDS011;72685;47.474;9.416;2024-03-06T11:53:30;2.00;;;1.90;;
11267;SDS011;72685;47.474;9.416;2024-03-06T11:55:58;1.97;;;1.87;;
11267;SDS011;72685;47.474;9.416;2024-03-06T11:58:24;2.07;;;1.97;;
11267;SDS011;72685;47.474;9.416;2024-03-06T12:00:50;2.40;;;1.87;;
11267;SDS011;72685;47.474;9.416;2024-03-06T12:03:16;1.90;;;1.80;;
11267;SDS011;72685;47.474;9.416;2024-03-06T12:05:42;2.00;;;1.90;;
11267;SDS011;72685;47.474;9.416;2024-03-06T12:08:09;2.10;;;2.00;;
11267;SDS011;72685;47.474;9.416;2024-03-06T12:10:38;1.73;;;1.63;;
11267;SDS011;72685;47.474;9.416;2024-03-06T12:13:07;2.20;;;2.10;;
11267;SDS011;72685;47.474;9.416;2024-03-06T12:15:32;1.97;;;1.87;;
11267;SDS011;72685;47.474;9.416;2024-03-06T12:17:58;3.20;;;2.23;;
11267;SDS011;72685;47.474;9.416;2024-03-06T12:20:24;1.77;;;1.67;;
11267;SDS011;72685;47.474;9.416;2024-03-06T12:22:54;2.00;;;1.90;;
11267;SDS011;72685;47.474;9.416;2024-03-06T12:25:24;1.90;;;1.80;;
11267;SDS011;72685;47.474;9.416;2024-03-06T12:27:51;2.07;;;1.90;;
11267;SDS011;72685;47.474;9.416;2024-03-06T12:30:21;1.80;;;1.70;;
11267;SDS011;72685;47.474;9.416;2024-03-06T12:33:00;2.00;;;1.90;;
11267;SDS011;72685;47.474;9.416;2024-03-06T12:35:30;2.10;;;2.00;;
11267;SDS011;72685;47.474;9.416;2024-03-06T12:37:56;2.00;;;1.90;;
11267;SDS011;72685;47.474;9.416;2024-03-06T12:40:22;2.30;;;2.20;;
11267;SDS011;72685;47.474;9.416;2024-03-06T12:42:48;2.00;;;1.90;;
11267;SDS011;72685;47.474;9.416;2024-03-06T12:45:15;2.00;;;1.90;;
11267;SDS011;72685;47.474;9.416;2024-03-06T12:47:45;1.90;;;1.80;;
11267;SDS011;72685;47.474;9.416;2024-03-06T12:50:13;1.90;;;1.80;;
11267;SDS011;72685;47.474;9.416;2024-03-06T12:52:39;2.00;;;1.90;;
11267;SDS011;72685;47.474;9.416;2024-03-06T12:55:05;2.17;;;2.07;;
11267;SDS011;72685;47.474;9.416;2024-03-06T12:57:31;2.17;;;2.07;;
11267;SDS011;72685;47.474;9.416;2024-03-06T12:59:57;1.77;;;1.77;;
11267;SDS011;72685;47.474;9.416;2024-03-06T13:02:22;3.77;;;1.77;;
11267;SDS011;72685;47.474;9.416;2024-03-06T13:04:47;2.00;;;1.90;;
11267;SDS011;72685;47.474;9.416;2024-03-06T13:07:13;1.83;;;1.73;;
11267;SDS011;72685;47.474;9.416;2024-03-06T13:09:39;3.10;;;1.90;;
11267;SDS011;72685;47.474;9.416;2024-03-06T13:12:04;1.50;;;1.50;;
11267;SDS011;72685;47.474;9.416;2024-03-06T13:14:31;1.77;;;1.67;;
11267;SDS011;72685;47.474;9.416;2024-03-06T13:16:57;1.70;;;1.70;;
11267;SDS011;72685;47.474;9.416;2024-03-06T13:19:23;1.93;;;1.83;;
11267;SDS011;72685;47.474;9.416;2024-03-06T13:21:48;1.97;;;1.87;;
11267;SDS011;72685;47.474;9.416;2024-03-06T13:24:14;2.10;;;2.00;;
11267;SDS011;72685;47.474;9.416;2024-03-06T13:26:39;1.70;;;1.70;;
11267;SDS011;72685;47.474;9.416;2024-03-06T13:29:05;1.60;;;1.60;;
11267;SDS011;72685;47.474;9.416;2024-03-06T13:31:31;1.97;;;1.87;;
11267;SDS011;72685;47.474;9.416;2024-03-06T13:33:59;1.90;;;1.80;;
11267;SDS011;72685;47.474;9.416;2024-03-06T13:36:25;1.43;;;1.30;;
11267;SDS011;72685;47.474;9.416;2024-03-06T13:38:50;1.53;;;1.47;;
11267;SDS011;72685;47.474;9.416;2024-03-06T13:41:16;1.80;;;1.70;;
11267;SDS011;72685;47.474;9.416;2024-03-06T13:43:42;1.90;;;1.80;;
11267;SDS011;72685;47.474;9.416;2024-03-06T13:46:08;1.80;;;1.70;;
11267;SDS011;72685;47.474;9.416;2024-03-06T13:48:33;1.77;;;1.70;;
11267;SDS011;72685;47.474;9.416;2024-03-06T13:50:59;1.80;;;1.70;;
11267;SDS011;72685;47.474;9.416;2024-03-06T13:53:25;1.60;;;1.60;;
11267;SDS011;72685;47.474;9.416;2024-03-06T13:55:50;2.07;;;1.97;;
11267;SDS011;72685;47.474;9.416;2024-03-06T13:58:17;3.13;;;2.00;;
11267;SDS011;72685;47.474;9.416;2024-03-06T14:00:42;4.17;;;1.60;;
11267;SDS011;72685;47.474;9.416;2024-03-06T14:03:09;1.53;;;1.53;;
11267;SDS011;72685;47.474;9.416;2024-03-06T14:05:37;1.83;;;1.73;;
11267;SDS011;72685;47.474;9.416;2024-03-06T14:08:02;1.50;;;1.50;;
11267;SDS011;72685;47.474;9.416;2024-03-06T14:10:29;2.10;;;1.50;;
11267;SDS011;72685;47.474;9.416;2024-03-06T14:12:58;2.30;;;1.70;;
11267;SDS011;72685;47.474;9.416;2024-03-06T14:15:24;1.63;;;1.63;;
11267;SDS011;72685;47.474;9.416;2024-03-06T14:17:51;2.03;;;1.83;;
11267;SDS011;72685;47.474;9.416;2024-03-06T14:20:19;1.90;;;1.80;;
11267;SDS011;72685;47.474;9.416;2024-03-06T14:22:44;1.60;;;1.60;;
11267;SDS011;72685;47.474;9.416;2024-03-06T14:25:10;1.83;;;1.73;;
11267;SDS011;72685;47.474;9.416;2024-03-06T14:27:36;1.50;;;1.50;;
11267;SDS011;72685;47.474;9.416;2024-03-06T14:30:02;1.93;;;1.83;;
11267;SDS011;72685;47.474;9.416;2024-03-06T14:32:29;1.57;;;1.57;;
11267;SDS011;72685;47.474;9.416;2024-03-06T14:34:54;1.40;;;1.40;;
11267;SDS011;72685;47.474;9.416;2024-03-06T14:37:19;3.40;;;1.70;;
11267;SDS011;72685;47.474;9.416;2024-03-06T14:39:45;2.10;;;2.00;;
11267;SDS011;72685;47.474;9.416;2024-03-06T14:42:10;2.20;;;2.00;;
11267;SDS011;72685;47.474;9.416;2024-03-06T14:44:35;1.73;;;1.73;;
11267;SDS011;72685;47.474;9.416;2024-03-06T14:47:01;2.00;;;1.90;;
11267;SDS011;72685;47.474;9.416;2024-03-06T14:49:27;1.90;;;1.80;;
11267;SDS011;72685;47.474;9.416;2024-03-06T14:51:52;2.00;;;1.90;;
11267;SDS011;72685;47.474;9.416;2024-03-06T14:54:18;2.10;;;2.00;;